Terminal Aerodrome Forecast
Issued by NWS

Home | Current Version | Previous Version | Text Only | Print | Product List | Glossary On
Versions: 1 2 3 4 5 6 7 8 9 10 11 12
000
FTUS42 KTBW 021121
TAFPGD
TAF
KPGD 021121Z 0212/0312 VRB05KT P6SM SCT250
     FM021500 23005KT P6SM SCT030 SCT250
     FM021800 27007KT P6SM VCTS SCT035CB BKN250
     FM030000 VRB04KT P6SM VCTS SCT025CB OVC250
     FM030300 00000KT P6SM BKN250=

USA.gov is the U.S. government's official web portal to all federal, state and local government web resources and services.